sensor_id;sensor_type;location;lat;lon;timestamp;P1;durP1;ratioP1;P2;durP2;ratioP2
62014;SDS011;47970;52.396;9.586;2023-05-07T00:00:50;24.37;;;13.07;;
62014;SDS011;47970;52.396;9.586;2023-05-07T00:03:16;23.63;;;12.85;;
62014;SDS011;47970;52.396;9.586;2023-05-07T00:05:41;23.73;;;13.30;;
62014;SDS011;47970;52.396;9.586;2023-05-07T00:08:07;24.35;;;12.82;;
62014;SDS011;47970;52.396;9.586;2023-05-07T00:10:32;25.90;;;13.63;;
62014;SDS011;47970;52.396;9.586;2023-05-07T00:12:57;26.97;;;13.53;;
62014;SDS011;47970;52.396;9.586;2023-05-07T00:15:23;20.88;;;13.10;;
62014;SDS011;47970;52.396;9.586;2023-05-07T00:17:48;26.30;;;13.30;;
62014;SDS011;47970;52.396;9.586;2023-05-07T00:20:13;22.20;;;12.60;;
62014;SDS011;47970;52.396;9.586;2023-05-07T00:22:38;20.30;;;11.90;;
62014;SDS011;47970;52.396;9.586;2023-05-07T00:25:04;21.15;;;12.90;;
62014;SDS011;47970;52.396;9.586;2023-05-07T00:27:30;23.58;;;13.68;;
62014;SDS011;47970;52.396;9.586;2023-05-07T00:29:55;23.83;;;13.63;;
62014;SDS011;47970;52.396;9.586;2023-05-07T00:32:20;24.90;;;12.18;;
62014;SDS011;47970;52.396;9.586;2023-05-07T00:34:45;25.57;;;12.90;;
62014;SDS011;47970;52.396;9.586;2023-05-07T00:37:10;26.60;;;12.90;;
62014;SDS011;47970;52.396;9.586;2023-05-07T00:39:36;21.48;;;12.68;;
62014;SDS011;47970;52.396;9.586;2023-05-07T00:42:02;21.60;;;12.48;;
62014;SDS011;47970;52.396;9.586;2023-05-07T00:44:28;23.20;;;11.70;;
62014;SDS011;47970;52.396;9.586;2023-05-07T00:46:53;21.67;;;12.07;;
62014;SDS011;47970;52.396;9.586;2023-05-07T00:49:19;26.80;;;12.20;;
62014;SDS011;47970;52.396;9.586;2023-05-07T00:51:44;23.95;;;13.15;;
62014;SDS011;47970;52.396;9.586;2023-05-07T00:54:10;25.02;;;13.65;;
62014;SDS011;47970;52.396;9.586;2023-05-07T00:56:36;25.75;;;13.32;;
62014;SDS011;47970;52.396;9.586;2023-05-07T00:59:01;24.33;;;13.00;;
62014;SDS011;47970;52.396;9.586;2023-05-07T01:01:27;23.80;;;12.57;;
62014;SDS011;47970;52.396;9.586;2023-05-07T01:03:52;25.95;;;13.38;;
62014;SDS011;47970;52.396;9.586;2023-05-07T01:06:18;27.25;;;13.10;;
62014;SDS011;47970;52.396;9.586;2023-05-07T01:08:44;30.67;;;13.25;;
62014;SDS011;47970;52.396;9.586;2023-05-07T01:11:09;24.35;;;12.48;;
62014;SDS011;47970;52.396;9.586;2023-05-07T01:13:35;23.60;;;13.13;;
62014;SDS011;47970;52.396;9.586;2023-05-07T01:16:01;23.83;;;13.43;;
62014;SDS011;47970;52.396;9.586;2023-05-07T01:18:26;23.00;;;13.38;;
62014;SDS011;47970;52.396;9.586;2023-05-07T01:20:52;25.83;;;13.90;;
62014;SDS011;47970;52.396;9.586;2023-05-07T01:23:17;26.80;;;13.25;;
62014;SDS011;47970;52.396;9.586;2023-05-07T01:25:43;23.52;;;13.07;;
62014;SDS011;47970;52.396;9.586;2023-05-07T01:28:08;26.67;;;13.17;;
62014;SDS011;47970;52.396;9.586;2023-05-07T01:30:33;22.93;;;12.70;;
62014;SDS011;47970;52.396;9.586;2023-05-07T01:33:01;22.35;;;12.77;;
62014;SDS011;47970;52.396;9.586;2023-05-07T01:35:29;22.73;;;13.70;;
62014;SDS011;47970;52.396;9.586;2023-05-07T01:37:55;25.05;;;14.15;;
62014;SDS011;47970;52.396;9.586;2023-05-07T01:40:21;27.42;;;15.05;;
62014;SDS011;47970;52.396;9.586;2023-05-07T01:42:47;26.80;;;12.65;;
62014;SDS011;47970;52.396;9.586;2023-05-07T01:45:13;22.45;;;12.90;;
62014;SDS011;47970;52.396;9.586;2023-05-07T01:47:38;30.17;;;13.90;;
62014;SDS011;47970;52.396;9.586;2023-05-07T01:50:05;28.52;;;13.88;;
62014;SDS011;47970;52.396;9.586;2023-05-07T01:52:30;23.75;;;12.88;;
62014;SDS011;47970;52.396;9.586;2023-05-07T01:54:56;23.35;;;13.10;;
62014;SDS011;47970;52.396;9.586;2023-05-07T01:57:21;24.43;;;13.63;;
62014;SDS011;47970;52.396;9.586;2023-05-07T01:59:46;29.75;;;13.57;;
62014;SDS011;47970;52.396;9.586;2023-05-07T02:02:11;26.57;;;13.63;;
62014;SDS011;47970;52.396;9.586;2023-05-07T02:04:36;25.97;;;12.13;;
62014;SDS011;47970;52.396;9.586;2023-05-07T02:07:02;24.38;;;13.15;;
62014;SDS011;47970;52.396;9.586;2023-05-07T02:09:27;21.63;;;12.57;;
62014;SDS011;47970;52.396;9.586;2023-05-07T02:11:53;22.33;;;12.18;;
62014;SDS011;47970;52.396;9.586;2023-05-07T02:14:18;22.88;;;12.25;;
62014;SDS011;47970;52.396;9.586;2023-05-07T02:16:45;21.98;;;11.00;;
62014;SDS011;47970;52.396;9.586;2023-05-07T02:19:10;22.93;;;11.33;;
62014;SDS011;47970;52.396;9.586;2023-05-07T02:21:35;20.80;;;10.37;;
62014;SDS011;47970;52.396;9.586;2023-05-07T02:24:00;21.50;;;10.83;;
62014;SDS011;47970;52.396;9.586;2023-05-07T02:26:25;21.83;;;10.50;;
62014;SDS011;47970;52.396;9.586;2023-05-07T02:28:51;20.67;;;10.48;;
62014;SDS011;47970;52.396;9.586;2023-05-07T02:31:16;23.10;;;10.15;;
62014;SDS011;47970;52.396;9.586;2023-05-07T02:33:41;20.23;;;10.77;;
62014;SDS011;47970;52.396;9.586;2023-05-07T02:36:07;19.50;;;9.63;;
62014;SDS011;47970;52.396;9.586;2023-05-07T02:38:33;17.90;;;10.05;;
62014;SDS011;47970;52.396;9.586;2023-05-07T02:40:59;18.92;;;9.88;;
62014;SDS011;47970;52.396;9.586;2023-05-07T02:43:24;18.27;;;9.20;;
62014;SDS011;47970;52.396;9.586;2023-05-07T02:45:59;16.83;;;9.40;;
62014;SDS011;47970;52.396;9.586;2023-05-07T02:48:25;17.33;;;7.93;;
62014;SDS011;47970;52.396;9.586;2023-05-07T02:50:50;16.90;;;9.03;;
62014;SDS011;47970;52.396;9.586;2023-05-07T02:53:15;15.43;;;8.57;;
62014;SDS011;47970;52.396;9.586;2023-05-07T02:55:40;16.52;;;7.70;;
62014;SDS011;47970;52.396;9.586;2023-05-07T02:58:05;15.33;;;6.70;;
62014;SDS011;47970;52.396;9.586;2023-05-07T03:00:31;16.40;;;7.90;;
62014;SDS011;47970;52.396;9.586;2023-05-07T03:02:56;13.30;;;7.50;;
62014;SDS011;47970;52.396;9.586;2023-05-07T03:05:21;14.77;;;6.77;;
62014;SDS011;47970;52.396;9.586;2023-05-07T03:07:46;16.08;;;7.63;;
62014;SDS011;47970;52.396;9.586;2023-05-07T03:10:12;12.35;;;6.75;;
62014;SDS011;47970;52.396;9.586;2023-05-07T03:12:37;15.38;;;7.80;;
62014;SDS011;47970;52.396;9.586;2023-05-07T03:15:02;14.63;;;7.37;;
62014;SDS011;47970;52.396;9.586;2023-05-07T03:17:28;14.77;;;7.30;;
62014;SDS011;47970;52.396;9.586;2023-05-07T03:19:53;13.37;;;6.97;;
62014;SDS011;47970;52.396;9.586;2023-05-07T03:22:18;12.80;;;7.65;;
62014;SDS011;47970;52.396;9.586;2023-05-07T03:24:43;13.27;;;7.40;;
62014;SDS011;47970;52.396;9.586;2023-05-07T03:27:09;15.43;;;7.80;;
62014;SDS011;47970;52.396;9.586;2023-05-07T03:29:34;11.53;;;6.37;;
62014;SDS011;47970;52.396;9.586;2023-05-07T03:32:00;12.73;;;7.43;;
62014;SDS011;47970;52.396;9.586;2023-05-07T03:34:25;15.18;;;7.30;;
62014;SDS011;47970;52.396;9.586;2023-05-07T03:36:51;11.30;;;6.53;;
62014;SDS011;47970;52.396;9.586;2023-05-07T03:39:16;14.47;;;7.33;;
62014;SDS011;47970;52.396;9.586;2023-05-07T03:41:41;11.02;;;6.68;;
62014;SDS011;47970;52.396;9.586;2023-05-07T03:44:06;16.52;;;7.28;;
62014;SDS011;47970;52.396;9.586;2023-05-07T03:46:32;11.45;;;6.95;;
62014;SDS011;47970;52.396;9.586;2023-05-07T03:48:57;11.27;;;6.57;;
62014;SDS011;47970;52.396;9.586;2023-05-07T03:51:23;14.93;;;6.95;;
62014;SDS011;47970;52.396;9.586;2023-05-07T03:53:48;11.48;;;6.45;;
62014;SDS011;47970;52.396;9.586;2023-05-07T03:56:13;14.75;;;6.47;;
62014;SDS011;47970;52.396;9.586;2023-05-07T03:58:39;10.35;;;5.80;;
62014;SDS011;47970;52.396;9.586;2023-05-07T04:01:04;14.33;;;6.97;;
62014;SDS011;47970;52.396;9.586;2023-05-07T04:03:29;11.33;;;6.47;;
62014;SDS011;47970;52.396;9.586;2023-05-07T04:05:54;10.17;;;5.60;;
62014;SDS011;47970;52.396;9.586;2023-05-07T04:08:19;11.80;;;6.47;;
62014;SDS011;47970;52.396;9.586;2023-05-07T04:10:45;9.60;;;5.60;;
62014;SDS011;47970;52.396;9.586;2023-05-07T04:13:10;17.13;;;6.45;;
62014;SDS011;47970;52.396;9.586;2023-05-07T04:15:36;12.03;;;6.40;;
62014;SDS011;47970;52.396;9.586;2023-05-07T04:18:01;11.77;;;6.90;;
62014;SDS011;47970;52.396;9.586;2023-05-07T04:20:26;11.43;;;5.38;;
62014;SDS011;47970;52.396;9.586;2023-05-07T04:22:51;12.40;;;6.27;;
62014;SDS011;47970;52.396;9.586;2023-05-07T04:25:17;11.30;;;5.90;;
62014;SDS011;47970;52.396;9.586;2023-05-07T04:27:42;13.57;;;6.60;;
62014;SDS011;47970;52.396;9.586;2023-05-07T04:30:07;14.67;;;7.27;;
62014;SDS011;47970;52.396;9.586;2023-05-07T04:32:33;16.23;;;7.25;;
62014;SDS011;47970;52.396;9.586;2023-05-07T04:34:58;12.57;;;6.47;;
62014;SDS011;47970;52.396;9.586;2023-05-07T04:37:23;17.30;;;7.07;;
62014;SDS011;47970;52.396;9.586;2023-05-07T04:39:48;15.60;;;7.82;;
62014;SDS011;47970;52.396;9.586;2023-05-07T04:42:14;13.55;;;6.43;;
62014;SDS011;47970;52.396;9.586;2023-05-07T04:44:40;12.55;;;7.05;;
62014;SDS011;47970;52.396;9.586;2023-05-07T04:47:05;14.53;;;7.60;;
62014;SDS011;47970;52.396;9.586;2023-05-07T04:49:31;13.20;;;7.35;;
62014;SDS011;47970;52.396;9.586;2023-05-07T04:51:56;13.07;;;7.40;;
62014;SDS011;47970;52.396;9.586;2023-05-07T04:54:21;12.73;;;7.07;;
62014;SDS011;47970;52.396;9.586;2023-05-07T04:56:47;13.83;;;7.10;;
62014;SDS011;47970;52.396;9.586;2023-05-07T04:59:12;12.33;;;6.43;;
62014;SDS011;47970;52.396;9.586;2023-05-07T05:01:37;14.18;;;7.55;;
62014;SDS011;47970;52.396;9.586;2023-05-07T05:04:02;12.33;;;7.00;;
62014;SDS011;47970;52.396;9.586;2023-05-07T05:06:28;14.20;;;7.85;;
62014;SDS011;47970;52.396;9.586;2023-05-07T05:08:53;13.35;;;8.00;;
62014;SDS011;47970;52.396;9.586;2023-05-07T05:11:18;11.43;;;6.53;;
62014;SDS011;47970;52.396;9.586;2023-05-07T05:13:44;13.05;;;7.38;;
62014;SDS011;47970;52.396;9.586;2023-05-07T05:16:09;12.32;;;6.95;;
62014;SDS011;47970;52.396;9.586;2023-05-07T05:18:34;13.85;;;7.43;;
62014;SDS011;47970;52.396;9.586;2023-05-07T05:21:00;14.55;;;7.13;;
62014;SDS011;47970;52.396;9.586;2023-05-07T05:23:25;13.63;;;7.27;;
62014;SDS011;47970;52.396;9.586;2023-05-07T05:25:50;14.13;;;6.93;;
62014;SDS011;47970;52.396;9.586;2023-05-07T05:28:20;15.20;;;7.72;;
62014;SDS011;47970;52.396;9.586;2023-05-07T05:30:45;13.93;;;7.60;;
62014;SDS011;47970;52.396;9.586;2023-05-07T05:33:10;11.97;;;7.30;;
62014;SDS011;47970;52.396;9.586;2023-05-07T05:35:35;13.20;;;7.17;;
62014;SDS011;47970;52.396;9.586;2023-05-07T05:38:00;13.47;;;7.53;;
62014;SDS011;47970;52.396;9.586;2023-05-07T05:40:26;14.17;;;7.27;;
62014;SDS011;47970;52.396;9.586;2023-05-07T05:42:51;12.98;;;7.07;;
62014;SDS011;47970;52.396;9.586;2023-05-07T05:45:16;11.10;;;6.73;;
62014;SDS011;47970;52.396;9.586;2023-05-07T05:47:42;10.93;;;6.07;;
62014;SDS011;47970;52.396;9.586;2023-05-07T05:50:07;12.85;;;6.55;;
62014;SDS011;47970;52.396;9.586;2023-05-07T05:52:33;10.95;;;6.25;;
62014;SDS011;47970;52.396;9.586;2023-05-07T05:54:58;17.07;;;7.30;;
62014;SDS011;47970;52.396;9.586;2023-05-07T05:57:23;14.27;;;7.23;;
62014;SDS011;47970;52.396;9.586;2023-05-07T05:59:48;14.93;;;7.80;;
62014;SDS011;47970;52.396;9.586;2023-05-07T06:02:14;13.63;;;7.33;;
62014;SDS011;47970;52.396;9.586;2023-05-07T06:04:39;12.45;;;6.75;;
62014;SDS011;47970;52.396;9.586;2023-05-07T06:07:04;12.80;;;6.22;;
62014;SDS011;47970;52.396;9.586;2023-05-07T06:09:30;12.68;;;7.25;;
62014;SDS011;47970;52.396;9.586;2023-05-07T06:11:55;11.07;;;6.10;;
62014;SDS011;47970;52.396;9.586;2023-05-07T06:14:20;14.15;;;6.72;;
62014;SDS011;47970;52.396;9.586;2023-05-07T06:16:46;10.65;;;6.35;;
62014;SDS011;47970;52.396;9.586;2023-05-07T06:19:11;11.13;;;6.20;;
62014;SDS011;47970;52.396;9.586;2023-05-07T06:21:36;11.67;;;6.00;;
62014;SDS011;47970;52.396;9.586;2023-05-07T06:24:01;10.07;;;5.83;;
62014;SDS011;47970;52.396;9.586;2023-05-07T06:26:27;12.50;;;5.70;;
62014;SDS011;47970;52.396;9.586;2023-05-07T06:28:52;10.77;;;5.93;;
62014;SDS011;47970;52.396;9.586;2023-05-07T06:31:18;11.00;;;5.87;;
62014;SDS011;47970;52.396;9.586;2023-05-07T06:33:45;9.48;;;5.47;;
62014;SDS011;47970;52.396;9.586;2023-05-07T06:36:10;10.07;;;6.07;;
62014;SDS011;47970;52.396;9.586;2023-05-07T06:38:36;10.53;;;5.40;;
62014;SDS011;47970;52.396;9.586;2023-05-07T06:41:01;8.07;;;5.07;;
62014;SDS011;47970;52.396;9.586;2023-05-07T06:43:26;12.50;;;6.13;;
62014;SDS011;47970;52.396;9.586;2023-05-07T06:45:51;9.70;;;5.97;;
62014;SDS011;47970;52.396;9.586;2023-05-07T06:48:16;11.83;;;6.00;;
62014;SDS011;47970;52.396;9.586;2023-05-07T06:50:42;9.03;;;5.33;;
62014;SDS011;47970;52.396;9.586;2023-05-07T06:53:07;9.93;;;5.57;;
62014;SDS011;47970;52.396;9.586;2023-05-07T06:55:32;9.02;;;5.70;;
62014;SDS011;47970;52.396;9.586;2023-05-07T06:57:57;8.82;;;5.55;;
62014;SDS011;47970;52.396;9.586;2023-05-07T07:00:25;11.23;;;4.90;;
62014;SDS011;47970;52.396;9.586;2023-05-07T07:02:51;8.10;;;4.40;;
62014;SDS011;47970;52.396;9.586;2023-05-07T07:05:16;8.00;;;4.87;;
62014;SDS011;47970;52.396;9.586;2023-05-07T07:07:41;9.23;;;4.72;;
62014;SDS011;47970;52.396;9.586;2023-05-07T07:10:06;8.47;;;5.20;;
62014;SDS011;47970;52.396;9.586;2023-05-07T07:12:32;7.72;;;5.15;;
62014;SDS011;47970;52.396;9.586;2023-05-07T07:14:57;9.90;;;5.87;;
62014;SDS011;47970;52.396;9.586;2023-05-07T07:17:22;8.93;;;5.50;;
62014;SDS011;47970;52.396;9.586;2023-05-07T07:19:47;13.23;;;6.13;;
62014;SDS011;47970;52.396;9.586;2023-05-07T07:22:13;8.93;;;6.17;;
62014;SDS011;47970;52.396;9.586;2023-05-07T07:24:38;8.60;;;5.87;;
62014;SDS011;47970;52.396;9.586;2023-05-07T07:27:03;9.43;;;5.90;;
62014;SDS011;47970;52.396;9.586;2023-05-07T07:29:28;9.73;;;6.43;;
62014;SDS011;47970;52.396;9.586;2023-05-07T07:31:53;9.67;;;6.13;;
62014;SDS011;47970;52.396;9.586;2023-05-07T07:34:19;9.37;;;5.90;;
62014;SDS011;47970;52.396;9.586;2023-05-07T07:36:44;12.63;;;6.83;;
62014;SDS011;47970;52.396;9.586;2023-05-07T07:39:09;11.17;;;7.10;;
62014;SDS011;47970;52.396;9.586;2023-05-07T07:41:34;9.77;;;6.87;;
62014;SDS011;47970;52.396;9.586;2023-05-07T07:43:59;9.10;;;6.77;;
62014;SDS011;47970;52.396;9.586;2023-05-07T07:46:24;9.07;;;6.47;;
62014;SDS011;47970;52.396;9.586;2023-05-07T07:48:51;10.73;;;7.03;;
62014;SDS011;47970;52.396;9.586;2023-05-07T07:51:16;12.53;;;8.13;;
62014;SDS011;47970;52.396;9.586;2023-05-07T07:53:41;9.27;;;6.67;;
62014;SDS011;47970;52.396;9.586;2023-05-07T07:56:07;11.68;;;7.18;;
62014;SDS011;47970;52.396;9.586;2023-05-07T07:58:32;9.38;;;6.40;;
62014;SDS011;47970;52.396;9.586;2023-05-07T08:00:57;15.00;;;8.00;;
62014;SDS011;47970;52.396;9.586;2023-05-07T08:03:23;11.95;;;7.53;;
62014;SDS011;47970;52.396;9.586;2023-05-07T08:05:48;13.50;;;7.80;;
62014;SDS011;47970;52.396;9.586;2023-05-07T08:08:16;10.95;;;7.20;;
62014;SDS011;47970;52.396;9.586;2023-05-07T08:10:41;12.10;;;7.65;;
62014;SDS011;47970;52.396;9.586;2023-05-07T08:13:06;12.80;;;8.00;;
62014;SDS011;47970;52.396;9.586;2023-05-07T08:15:31;14.23;;;7.43;;
62014;SDS011;47970;52.396;9.586;2023-05-07T08:17:58;10.83;;;6.97;;
62014;SDS011;47970;52.396;9.586;2023-05-07T08:20:24;9.40;;;6.90;;
62014;SDS011;47970;52.396;9.586;2023-05-07T08:22:50;11.90;;;7.80;;
62014;SDS011;47970;52.396;9.586;2023-05-07T08:25:16;16.23;;;9.45;;
62014;SDS011;47970;52.396;9.586;2023-05-07T08:27:41;11.17;;;6.33;;
62014;SDS011;47970;52.396;9.586;2023-05-07T08:30:06;10.33;;;7.30;;
62014;SDS011;47970;52.396;9.586;2023-05-07T08:32:32;11.07;;;6.40;;
62014;SDS011;47970;52.396;9.586;2023-05-07T08:34:57;14.13;;;7.43;;
62014;SDS011;47970;52.396;9.586;2023-05-07T08:37:22;12.63;;;7.20;;
62014;SDS011;47970;52.396;9.586;2023-05-07T08:39:47;13.87;;;6.93;;
62014;SDS011;47970;52.396;9.586;2023-05-07T08:42:12;11.83;;;7.83;;
62014;SDS011;47970;52.396;9.586;2023-05-07T08:44:40;11.73;;;8.05;;
62014;SDS011;47970;52.396;9.586;2023-05-07T08:47:06;13.95;;;9.80;;
62014;SDS011;47970;52.396;9.586;2023-05-07T08:49:33;14.20;;;9.88;;
62014;SDS011;47970;52.396;9.586;2023-05-07T08:51:58;13.68;;;9.73;;
62014;SDS011;47970;52.396;9.586;2023-05-07T08:54:24;13.65;;;9.20;;
62014;SDS011;47970;52.396;9.586;2023-05-07T08:56:49;12.30;;;8.57;;
62014;SDS011;47970;52.396;9.586;2023-05-07T08:59:15;15.52;;;8.80;;
62014;SDS011;47970;52.396;9.586;2023-05-07T09:01:40;11.43;;;8.30;;
62014;SDS011;47970;52.396;9.586;2023-05-07T09:04:05;12.68;;;7.97;;
62014;SDS011;47970;52.396;9.586;2023-05-07T09:06:32;11.02;;;7.93;;
62014;SDS011;47970;52.396;9.586;2023-05-07T09:08:57;13.13;;;8.57;;
62014;SDS011;47970;52.396;9.586;2023-05-07T09:11:25;13.60;;;8.55;;
62014;SDS011;47970;52.396;9.586;2023-05-07T09:13:54;13.70;;;9.27;;
62014;SDS011;47970;52.396;9.586;2023-05-07T09:16:20;13.38;;;7.97;;
62014;SDS011;47970;52.396;9.586;2023-05-07T09:18:46;11.18;;;7.22;;
62014;SDS011;47970;52.396;9.586;2023-05-07T09:21:15;13.35;;;7.38;;
62014;SDS011;47970;52.396;9.586;2023-05-07T09:23:41;13.48;;;8.05;;
62014;SDS011;47970;52.396;9.586;2023-05-07T09:26:06;11.35;;;7.68;;
62014;SDS011;47970;52.396;9.586;2023-05-07T09:28:37;10.88;;;7.35;;
62014;SDS011;47970;52.396;9.586;2023-05-07T09:31:02;12.82;;;8.00;;
62014;SDS011;47970;52.396;9.586;2023-05-07T09:33:28;16.30;;;8.00;;
62014;SDS011;47970;52.396;9.586;2023-05-07T09:35:54;13.40;;;8.45;;
62014;SDS011;47970;52.396;9.586;2023-05-07T09:38:19;11.07;;;7.37;;
62014;SDS011;47970;52.396;9.586;2023-05-07T09:40:45;10.45;;;6.43;;
62014;SDS011;47970;52.396;9.586;2023-05-07T09:43:10;10.93;;;7.07;;
62014;SDS011;47970;52.396;9.586;2023-05-07T09:45:36;12.85;;;7.22;;
62014;SDS011;47970;52.396;9.586;2023-05-07T09:48:03;8.63;;;5.50;;
62014;SDS011;47970;52.396;9.586;2023-05-07T09:50:32;12.13;;;6.80;;
62014;SDS011;47970;52.396;9.586;2023-05-07T09:52:59;10.80;;;7.15;;
62014;SDS011;47970;52.396;9.586;2023-05-07T09:55:24;11.05;;;6.63;;
62014;SDS011;47970;52.396;9.586;2023-05-07T09:57:50;8.23;;;6.40;;
62014;SDS011;47970;52.396;9.586;2023-05-07T10:00:16;9.73;;;6.40;;
62014;SDS011;47970;52.396;9.586;2023-05-07T10:02:44;9.20;;;6.68;;
62014;SDS011;47970;52.396;9.586;2023-05-07T10:05:14;10.25;;;6.13;;
62014;SDS011;47970;52.396;9.586;2023-05-07T10:07:39;10.80;;;6.75;;
62014;SDS011;47970;52.396;9.586;2023-05-07T10:10:05;10.50;;;6.53;;
62014;SDS011;47970;52.396;9.586;2023-05-07T10:12:31;11.00;;;6.72;;
62014;SDS011;47970;52.396;9.586;2023-05-07T10:15:02;13.60;;;7.07;;
62014;SDS011;47970;52.396;9.586;2023-05-07T10:17:28;12.45;;;6.40;;
62014;SDS011;47970;52.396;9.586;2023-05-07T10:19:54;13.15;;;7.10;;
62014;SDS011;47970;52.396;9.586;2023-05-07T10:22:19;11.20;;;6.97;;
62014;SDS011;47970;52.396;9.586;2023-05-07T10:24:45;9.52;;;6.03;;
62014;SDS011;47970;52.396;9.586;2023-05-07T10:27:13;11.32;;;6.90;;
62014;SDS011;47970;52.396;9.586;2023-05-07T10:34:54;12.32;;;6.72;;
62014;SDS011;47970;52.396;9.586;2023-05-07T10:37:21;10.18;;;6.57;;
62014;SDS011;47970;52.396;9.586;2023-05-07T10:39:47;11.00;;;6.75;;
62014;SDS011;47970;52.396;9.586;2023-05-07T10:42:13;11.05;;;6.55;;
62014;SDS011;47970;52.396;9.586;2023-05-07T10:44:38;10.55;;;6.78;;
62014;SDS011;47970;52.396;9.586;2023-05-07T10:47:07;10.90;;;7.00;;
62014;SDS011;47970;52.396;9.586;2023-05-07T10:49:34;13.65;;;7.45;;
62014;SDS011;47970;52.396;9.586;2023-05-07T10:54:40;10.73;;;7.65;;
62014;SDS011;47970;52.396;9.586;2023-05-07T10:57:32;9.98;;;6.85;;
62014;SDS011;47970;52.396;9.586;2023-05-07T10:59:51;10.45;;;7.00;;
62014;SDS011;47970;52.396;9.586;2023-05-07T11:02:17;9.80;;;6.07;;
62014;SDS011;47970;52.396;9.586;2023-05-07T11:04:42;10.15;;;6.63;;
62014;SDS011;47970;52.396;9.586;2023-05-07T11:15:01;8.73;;;5.97;;
62014;SDS011;47970;52.396;9.586;2023-05-07T11:17:26;23.90;;;7.00;;
62014;SDS011;47970;52.396;9.586;2023-05-07T11:19:55;14.25;;;6.15;;
62014;SDS011;47970;52.396;9.586;2023-05-07T11:22:39;9.52;;;5.65;;
62014;SDS011;47970;52.396;9.586;2023-05-07T11:25:07;8.00;;;5.78;;
62014;SDS011;47970;52.396;9.586;2023-05-07T11:27:32;8.37;;;5.20;;
62014;SDS011;47970;52.396;9.586;2023-05-07T11:29:58;7.03;;;4.80;;
62014;SDS011;47970;52.396;9.586;2023-05-07T11:32:27;9.93;;;5.45;;
62014;SDS011;47970;52.396;9.586;2023-05-07T11:34:53;9.50;;;5.70;;
62014;SDS011;47970;52.396;9.586;2023-05-07T11:37:19;7.00;;;4.97;;
62014;SDS011;47970;52.396;9.586;2023-05-07T11:39:45;8.07;;;5.20;;
62014;SDS011;47970;52.396;9.586;2023-05-07T11:42:32;7.87;;;5.43;;
62014;SDS011;47970;52.396;9.586;2023-05-07T11:44:57;8.68;;;5.35;;
62014;SDS011;47970;52.396;9.586;2023-05-07T11:47:23;7.97;;;5.18;;
62014;SDS011;47970;52.396;9.586;2023-05-07T11:49:49;8.05;;;5.28;;
62014;SDS011;47970;52.396;9.586;2023-05-07T11:52:15;7.20;;;5.05;;
62014;SDS011;47970;52.396;9.586;2023-05-07T11:54:40;8.25;;;5.30;;
62014;SDS011;47970;52.396;9.586;2023-05-07T11:57:05;8.60;;;5.53;;
62014;SDS011;47970;52.396;9.586;2023-05-07T11:59:41;8.55;;;5.13;;
62014;SDS011;47970;52.396;9.586;2023-05-07T12:02:06;7.57;;;5.05;;
62014;SDS011;47970;52.396;9.586;2023-05-07T12:04:32;8.05;;;5.22;;
62014;SDS011;47970;52.396;9.586;2023-05-07T12:06:57;13.57;;;5.93;;
62014;SDS011;47970;52.396;9.586;2023-05-07T12:09:22;10.27;;;5.30;;
62014;SDS011;47970;52.396;9.586;2023-05-07T12:11:48;8.50;;;5.47;;
62014;SDS011;47970;52.396;9.586;2023-05-07T12:14:13;9.48;;;5.22;;
62014;SDS011;47970;52.396;9.586;2023-05-07T12:16:40;8.23;;;4.85;;
62014;SDS011;47970;52.396;9.586;2023-05-07T12:19:06;6.13;;;4.72;;
62014;SDS011;47970;52.396;9.586;2023-05-07T12:21:33;7.25;;;4.93;;
62014;SDS011;47970;52.396;9.586;2023-05-07T12:23:59;6.68;;;4.70;;
62014;SDS011;47970;52.396;9.586;2023-05-07T12:26:24;6.72;;;4.32;;
62014;SDS011;47970;52.396;9.586;2023-05-07T12:28:49;6.43;;;4.68;;
62014;SDS011;47970;52.396;9.586;2023-05-07T12:31:15;7.53;;;4.80;;
62014;SDS011;47970;52.396;9.586;2023-05-07T12:33:41;7.22;;;4.60;;
62014;SDS011;47970;52.396;9.586;2023-05-07T12:36:06;6.80;;;4.70;;
62014;SDS011;47970;52.396;9.586;2023-05-07T12:38:34;7.93;;;4.63;;
62014;SDS011;47970;52.396;9.586;2023-05-07T12:41:00;8.25;;;5.10;;
62014;SDS011;47970;52.396;9.586;2023-05-07T12:43:26;6.20;;;4.23;;
62014;SDS011;47970;52.396;9.586;2023-05-07T12:45:53;6.78;;;4.25;;
62014;SDS011;47970;52.396;9.586;2023-05-07T12:48:19;6.97;;;4.45;;
62014;SDS011;47970;52.396;9.586;2023-05-07T12:50:44;8.07;;;4.10;;
62014;SDS011;47970;52.396;9.586;2023-05-07T12:53:11;5.80;;;4.10;;
62014;SDS011;47970;52.396;9.586;2023-05-07T12:55:40;8.27;;;4.43;;
62014;SDS011;47970;52.396;9.586;2023-05-07T12:58:06;8.98;;;4.38;;
62014;SDS011;47970;52.396;9.586;2023-05-07T13:00:32;6.18;;;4.03;;
62014;SDS011;47970;52.396;9.586;2023-05-07T13:02:58;9.18;;;4.05;;
62014;SDS011;47970;52.396;9.586;2023-05-07T13:05:23;8.13;;;3.88;;
62014;SDS011;47970;52.396;9.586;2023-05-07T13:07:57;6.63;;;3.90;;
62014;SDS011;47970;52.396;9.586;2023-05-07T13:10:23;6.47;;;4.00;;
62014;SDS011;47970;52.396;9.586;2023-05-07T13:12:48;5.53;;;3.78;;
62014;SDS011;47970;52.396;9.586;2023-05-07T13:15:14;7.45;;;4.32;;
62014;SDS011;47970;52.396;9.586;2023-05-07T13:17:39;8.23;;;4.10;;
62014;SDS011;47970;52.396;9.586;2023-05-07T13:20:04;6.50;;;4.20;;
62014;SDS011;47970;52.396;9.586;2023-05-07T13:22:30;7.07;;;4.25;;
62014;SDS011;47970;52.396;9.586;2023-05-07T13:24:55;13.60;;;5.27;;
62014;SDS011;47970;52.396;9.586;2023-05-07T13:27:21;8.87;;;4.97;;
62014;SDS011;47970;52.396;9.586;2023-05-07T13:29:46;7.68;;;4.88;;
62014;SDS011;47970;52.396;9.586;2023-05-07T13:32:11;8.07;;;5.03;;
62014;SDS011;47970;52.396;9.586;2023-05-07T13:34:36;8.23;;;4.97;;
62014;SDS011;47970;52.396;9.586;2023-05-07T13:37:02;6.97;;;5.05;;
62014;SDS011;47970;52.396;9.586;2023-05-07T13:39:27;7.57;;;5.03;;
62014;SDS011;47970;52.396;9.586;2023-05-07T13:41:52;8.43;;;4.97;;
62014;SDS011;47970;52.396;9.586;2023-05-07T13:44:17;8.83;;;4.67;;
62014;SDS011;47970;52.396;9.586;2023-05-07T13:46:42;8.40;;;4.97;;
62014;SDS011;47970;52.396;9.586;2023-05-07T13:49:08;7.40;;;4.93;;
62014;SDS011;47970;52.396;9.586;2023-05-07T13:51:33;10.43;;;4.30;;
62014;SDS011;47970;52.396;9.586;2023-05-07T13:53:58;6.97;;;5.03;;
62014;SDS011;47970;52.396;9.586;2023-05-07T13:56:23;7.47;;;5.07;;
62014;SDS011;47970;52.396;9.586;2023-05-07T13:58:48;7.63;;;5.27;;
62014;SDS011;47970;52.396;9.586;2023-05-07T14:01:14;7.20;;;5.63;;
62014;SDS011;47970;52.396;9.586;2023-05-07T14:03:39;7.50;;;5.13;;
62014;SDS011;47970;52.396;9.586;2023-05-07T14:06:05;8.00;;;5.55;;
62014;SDS011;47970;52.396;9.586;2023-05-07T14:08:30;7.72;;;5.45;;
62014;SDS011;47970;52.396;9.586;2023-05-07T14:10:55;11.43;;;5.40;;
62014;SDS011;47970;52.396;9.586;2023-05-07T14:13:20;6.70;;;5.33;;
62014;SDS011;47970;52.396;9.586;2023-05-07T14:15:45;7.18;;;5.07;;
62014;SDS011;47970;52.396;9.586;2023-05-07T14:18:14;9.80;;;5.63;;
62014;SDS011;47970;52.396;9.586;2023-05-07T14:20:40;11.43;;;5.28;;
62014;SDS011;47970;52.396;9.586;2023-05-07T14:23:05;9.00;;;5.47;;
62014;SDS011;47970;52.396;9.586;2023-05-07T14:25:30;8.77;;;5.07;;
62014;SDS011;47970;52.396;9.586;2023-05-07T14:27:55;8.70;;;5.47;;
62014;SDS011;47970;52.396;9.586;2023-05-07T14:30:20;6.83;;;5.07;;
62014;SDS011;47970;52.396;9.586;2023-05-07T14:32:47;6.95;;;4.57;;
62014;SDS011;47970;52.396;9.586;2023-05-07T14:35:12;6.88;;;4.57;;
62014;SDS011;47970;52.396;9.586;2023-05-07T14:37:37;7.03;;;4.77;;
62014;SDS011;47970;52.396;9.586;2023-05-07T14:40:03;7.53;;;4.50;;
62014;SDS011;47970;52.396;9.586;2023-05-07T14:42:28;7.20;;;4.32;;